sensor_id;sensor_type;location;lat;lon;timestamp;P1;durP1;ratioP1;P2;durP2;ratioP2
27163;SDS011;14685;50.618;7.024;2023-06-22T00:00:12;6.65;;;6.05;;
27163;SDS011;14685;50.618;7.024;2023-06-22T00:02:41;7.60;;;5.88;;
27163;SDS011;14685;50.618;7.024;2023-06-22T00:05:07;10.38;;;6.63;;
27163;SDS011;14685;50.618;7.024;2023-06-22T00:07:34;9.45;;;7.25;;
27163;SDS011;14685;50.618;7.024;2023-06-22T00:10:01;12.75;;;7.93;;
27163;SDS011;14685;50.618;7.024;2023-06-22T00:12:28;8.77;;;7.55;;
27163;SDS011;14685;50.618;7.024;2023-06-22T00:14:55;12.15;;;7.40;;
27163;SDS011;14685;50.618;7.024;2023-06-22T00:17:22;10.80;;;6.93;;
27163;SDS011;14685;50.618;7.024;2023-06-22T00:19:49;9.85;;;7.18;;
27163;SDS011;14685;50.618;7.024;2023-06-22T00:22:20;7.70;;;6.57;;
27163;SDS011;14685;50.618;7.024;2023-06-22T00:24:55;7.68;;;6.72;;
27163;SDS011;14685;50.618;7.024;2023-06-22T00:27:23;9.05;;;6.28;;
27163;SDS011;14685;50.618;7.024;2023-06-22T00:29:50;10.80;;;6.50;;
27163;SDS011;14685;50.618;7.024;2023-06-22T00:32:17;8.25;;;6.75;;
27163;SDS011;14685;50.618;7.024;2023-06-22T00:34:45;7.43;;;6.55;;
27163;SDS011;14685;50.618;7.024;2023-06-22T00:37:12;7.47;;;5.97;;
27163;SDS011;14685;50.618;7.024;2023-06-22T00:39:39;8.88;;;6.03;;
27163;SDS011;14685;50.618;7.024;2023-06-22T00:42:05;8.65;;;6.47;;
27163;SDS011;14685;50.618;7.024;2023-06-22T00:44:32;8.90;;;6.72;;
27163;SDS011;14685;50.618;7.024;2023-06-22T00:47:00;8.30;;;6.63;;
27163;SDS011;14685;50.618;7.024;2023-06-22T00:49:27;10.75;;;6.50;;
27163;SDS011;14685;50.618;7.024;2023-06-22T00:51:54;10.00;;;6.53;;
27163;SDS011;14685;50.618;7.024;2023-06-22T00:54:24;7.05;;;6.30;;
27163;SDS011;14685;50.618;7.024;2023-06-22T00:56:52;11.43;;;7.20;;
27163;SDS011;14685;50.618;7.024;2023-06-22T00:59:23;8.93;;;6.57;;
27163;SDS011;14685;50.618;7.024;2023-06-22T01:01:50;13.27;;;6.85;;
27163;SDS011;14685;50.618;7.024;2023-06-22T01:04:17;9.88;;;6.57;;
27163;SDS011;14685;50.618;7.024;2023-06-22T01:06:45;8.98;;;5.75;;
27163;SDS011;14685;50.618;7.024;2023-06-22T01:09:22;7.57;;;5.70;;
27163;SDS011;14685;50.618;7.024;2023-06-22T01:11:56;8.10;;;5.80;;
27163;SDS011;14685;50.618;7.024;2023-06-22T01:14:28;9.88;;;6.50;;
27163;SDS011;14685;50.618;7.024;2023-06-22T01:17:11;9.40;;;5.97;;
27163;SDS011;14685;50.618;7.024;2023-06-22T01:19:46;10.82;;;6.00;;
27163;SDS011;14685;50.618;7.024;2023-06-22T01:22:19;7.75;;;5.80;;
27163;SDS011;14685;50.618;7.024;2023-06-22T01:30:16;12.82;;;5.88;;
27163;SDS011;14685;50.618;7.024;2023-06-22T01:32:45;8.93;;;5.60;;
27163;SDS011;14685;50.618;7.024;2023-06-22T01:35:13;7.95;;;6.65;;
27163;SDS011;14685;50.618;7.024;2023-06-22T01:37:41;7.50;;;5.90;;
27163;SDS011;14685;50.618;7.024;2023-06-22T01:40:08;9.52;;;6.25;;
27163;SDS011;14685;50.618;7.024;2023-06-22T01:42:36;11.13;;;6.35;;
27163;SDS011;14685;50.618;7.024;2023-06-22T01:45:03;7.47;;;5.88;;
27163;SDS011;14685;50.618;7.024;2023-06-22T01:47:32;11.65;;;6.50;;
27163;SDS011;14685;50.618;7.024;2023-06-22T01:50:00;8.68;;;5.88;;
27163;SDS011;14685;50.618;7.024;2023-06-22T01:52:27;7.65;;;5.65;;
27163;SDS011;14685;50.618;7.024;2023-06-22T01:54:54;9.45;;;6.35;;
27163;SDS011;14685;50.618;7.024;2023-06-22T01:57:24;14.20;;;5.93;;
27163;SDS011;14685;50.618;7.024;2023-06-22T02:02:31;9.95;;;6.53;;
27163;SDS011;14685;50.618;7.024;2023-06-22T02:05:06;11.85;;;6.32;;
27163;SDS011;14685;50.618;7.024;2023-06-22T02:07:41;10.48;;;5.90;;
27163;SDS011;14685;50.618;7.024;2023-06-22T02:10:14;13.90;;;6.55;;
27163;SDS011;14685;50.618;7.024;2023-06-22T02:12:44;13.00;;;5.88;;
27163;SDS011;14685;50.618;7.024;2023-06-22T02:15:12;11.35;;;6.32;;
27163;SDS011;14685;50.618;7.024;2023-06-22T02:17:40;9.98;;;6.32;;
27163;SDS011;14685;50.618;7.024;2023-06-22T02:20:12;9.45;;;6.03;;
27163;SDS011;14685;50.618;7.024;2023-06-22T02:22:41;9.00;;;6.30;;
27163;SDS011;14685;50.618;7.024;2023-06-22T02:25:08;12.43;;;7.03;;
27163;SDS011;14685;50.618;7.024;2023-06-22T02:27:36;17.25;;;6.70;;
27163;SDS011;14685;50.618;7.024;2023-06-22T02:30:07;11.27;;;6.82;;
27163;SDS011;14685;50.618;7.024;2023-06-22T02:32:35;12.65;;;6.82;;
27163;SDS011;14685;50.618;7.024;2023-06-22T02:35:03;9.13;;;6.78;;
27163;SDS011;14685;50.618;7.024;2023-06-22T02:37:31;7.82;;;6.10;;
27163;SDS011;14685;50.618;7.024;2023-06-22T02:39:58;9.15;;;6.72;;
27163;SDS011;14685;50.618;7.024;2023-06-22T02:42:25;10.07;;;6.22;;
27163;SDS011;14685;50.618;7.024;2023-06-22T02:44:52;8.63;;;6.32;;
27163;SDS011;14685;50.618;7.024;2023-06-22T02:47:19;12.07;;;6.30;;
27163;SDS011;14685;50.618;7.024;2023-06-22T02:49:46;10.55;;;7.00;;
27163;SDS011;14685;50.618;7.024;2023-06-22T02:52:13;8.70;;;6.65;;
27163;SDS011;14685;50.618;7.024;2023-06-22T02:54:40;8.80;;;6.90;;
27163;SDS011;14685;50.618;7.024;2023-06-22T02:57:08;9.05;;;6.70;;
27163;SDS011;14685;50.618;7.024;2023-06-22T02:59:40;9.32;;;6.88;;
27163;SDS011;14685;50.618;7.024;2023-06-22T03:02:08;10.93;;;5.82;;
27163;SDS011;14685;50.618;7.024;2023-06-22T03:04:35;12.40;;;7.22;;
27163;SDS011;14685;50.618;7.024;2023-06-22T03:07:03;8.23;;;6.68;;
27163;SDS011;14685;50.618;7.024;2023-06-22T03:09:31;9.85;;;6.93;;
27163;SDS011;14685;50.618;7.024;2023-06-22T03:11:58;9.40;;;6.88;;
27163;SDS011;14685;50.618;7.024;2023-06-22T03:14:25;10.38;;;6.72;;
27163;SDS011;14685;50.618;7.024;2023-06-22T03:16:52;9.65;;;7.03;;
27163;SDS011;14685;50.618;7.024;2023-06-22T03:19:19;12.02;;;7.28;;
27163;SDS011;14685;50.618;7.024;2023-06-22T03:21:48;8.88;;;6.65;;
27163;SDS011;14685;50.618;7.024;2023-06-22T03:24:15;10.85;;;7.65;;
27163;SDS011;14685;50.618;7.024;2023-06-22T03:26:41;14.68;;;7.45;;
27163;SDS011;14685;50.618;7.024;2023-06-22T03:29:08;8.50;;;6.80;;
27163;SDS011;14685;50.618;7.024;2023-06-22T03:31:36;10.80;;;7.05;;
27163;SDS011;14685;50.618;7.024;2023-06-22T03:34:03;10.38;;;7.55;;
27163;SDS011;14685;50.618;7.024;2023-06-22T03:36:33;10.45;;;7.70;;
27163;SDS011;14685;50.618;7.024;2023-06-22T03:39:00;11.68;;;8.63;;
27163;SDS011;14685;50.618;7.024;2023-06-22T03:41:27;11.98;;;7.00;;
27163;SDS011;14685;50.618;7.024;2023-06-22T03:43:53;11.48;;;7.50;;
27163;SDS011;14685;50.618;7.024;2023-06-22T03:46:20;14.02;;;7.95;;
27163;SDS011;14685;50.618;7.024;2023-06-22T03:48:48;10.00;;;7.70;;
27163;SDS011;14685;50.618;7.024;2023-06-22T03:51:15;12.15;;;8.40;;
27163;SDS011;14685;50.618;7.024;2023-06-22T03:53:42;11.85;;;7.47;;
27163;SDS011;14685;50.618;7.024;2023-06-22T03:56:09;12.80;;;8.27;;
27163;SDS011;14685;50.618;7.024;2023-06-22T03:58:36;10.10;;;7.20;;
27163;SDS011;14685;50.618;7.024;2023-06-22T04:01:09;9.43;;;7.93;;
27163;SDS011;14685;50.618;7.024;2023-06-22T04:03:38;9.05;;;7.40;;
27163;SDS011;14685;50.618;7.024;2023-06-22T04:06:05;9.63;;;8.15;;
27163;SDS011;14685;50.618;7.024;2023-06-22T04:08:32;14.27;;;8.15;;
27163;SDS011;14685;50.618;7.024;2023-06-22T04:10:59;10.82;;;8.13;;
27163;SDS011;14685;50.618;7.024;2023-06-22T04:13:26;10.73;;;9.02;;
27163;SDS011;14685;50.618;7.024;2023-06-22T04:15:52;18.60;;;9.90;;
27163;SDS011;14685;50.618;7.024;2023-06-22T04:18:19;10.77;;;8.75;;
27163;SDS011;14685;50.618;7.024;2023-06-22T04:20:46;14.93;;;8.88;;
27163;SDS011;14685;50.618;7.024;2023-06-22T04:23:13;12.55;;;8.80;;
27163;SDS011;14685;50.618;7.024;2023-06-22T04:25:40;10.15;;;7.63;;
27163;SDS011;14685;50.618;7.024;2023-06-22T04:28:07;10.35;;;7.47;;
27163;SDS011;14685;50.618;7.024;2023-06-22T04:30:39;10.38;;;8.07;;
27163;SDS011;14685;50.618;7.024;2023-06-22T04:35:45;12.48;;;7.95;;
27163;SDS011;14685;50.618;7.024;2023-06-22T04:38:13;9.82;;;8.35;;
27163;SDS011;14685;50.618;7.024;2023-06-22T04:40:40;13.10;;;8.23;;
27163;SDS011;14685;50.618;7.024;2023-06-22T04:43:09;16.92;;;9.02;;
27163;SDS011;14685;50.618;7.024;2023-06-22T04:45:36;11.90;;;8.23;;
27163;SDS011;14685;50.618;7.024;2023-06-22T04:48:05;11.02;;;7.95;;
27163;SDS011;14685;50.618;7.024;2023-06-22T04:50:32;13.85;;;9.07;;
27163;SDS011;14685;50.618;7.024;2023-06-22T04:52:59;12.88;;;9.02;;
27163;SDS011;14685;50.618;7.024;2023-06-22T04:55:25;14.48;;;10.23;;
27163;SDS011;14685;50.618;7.024;2023-06-22T04:57:55;13.02;;;9.93;;
27163;SDS011;14685;50.618;7.024;2023-06-22T05:00:22;11.80;;;9.82;;
27163;SDS011;14685;50.618;7.024;2023-06-22T05:02:49;15.40;;;11.35;;
27163;SDS011;14685;50.618;7.024;2023-06-22T05:05:16;14.15;;;11.18;;
27163;SDS011;14685;50.618;7.024;2023-06-22T05:07:47;12.68;;;11.25;;
27163;SDS011;14685;50.618;7.024;2023-06-22T05:10:19;13.48;;;11.95;;
27163;SDS011;14685;50.618;7.024;2023-06-22T05:12:46;14.13;;;11.13;;
27163;SDS011;14685;50.618;7.024;2023-06-22T05:15:13;15.43;;;11.43;;
27163;SDS011;14685;50.618;7.024;2023-06-22T05:17:41;15.25;;;10.45;;
27163;SDS011;14685;50.618;7.024;2023-06-22T05:20:14;14.73;;;11.57;;
27163;SDS011;14685;50.618;7.024;2023-06-22T05:22:45;13.10;;;10.73;;
27163;SDS011;14685;50.618;7.024;2023-06-22T05:25:13;13.30;;;11.73;;
27163;SDS011;14685;50.618;7.024;2023-06-22T05:27:39;12.98;;;11.32;;
27163;SDS011;14685;50.618;7.024;2023-06-22T05:30:07;13.38;;;9.63;;
27163;SDS011;14685;50.618;7.024;2023-06-22T05:32:35;14.25;;;11.80;;
27163;SDS011;14685;50.618;7.024;2023-06-22T05:35:03;12.63;;;10.23;;
27163;SDS011;14685;50.618;7.024;2023-06-22T05:37:31;14.63;;;11.73;;
27163;SDS011;14685;50.618;7.024;2023-06-22T05:39:58;12.35;;;10.45;;
27163;SDS011;14685;50.618;7.024;2023-06-22T05:42:25;14.13;;;11.73;;
27163;SDS011;14685;50.618;7.024;2023-06-22T05:44:52;14.48;;;11.70;;
27163;SDS011;14685;50.618;7.024;2023-06-22T05:47:19;16.02;;;12.52;;
27163;SDS011;14685;50.618;7.024;2023-06-22T05:49:47;15.27;;;12.65;;
27163;SDS011;14685;50.618;7.024;2023-06-22T05:52:14;17.42;;;12.32;;
27163;SDS011;14685;50.618;7.024;2023-06-22T05:54:42;13.05;;;11.38;;
27163;SDS011;14685;50.618;7.024;2023-06-22T05:57:09;13.93;;;12.07;;
27163;SDS011;14685;50.618;7.024;2023-06-22T05:59:37;13.05;;;11.65;;
27163;SDS011;14685;50.618;7.024;2023-06-22T06:02:04;15.82;;;10.32;;
27163;SDS011;14685;50.618;7.024;2023-06-22T06:04:32;12.70;;;11.05;;
27163;SDS011;14685;50.618;7.024;2023-06-22T06:06:59;14.73;;;12.05;;
27163;SDS011;14685;50.618;7.024;2023-06-22T06:09:25;12.45;;;11.25;;
27163;SDS011;14685;50.618;7.024;2023-06-22T06:11:54;14.82;;;12.13;;
27163;SDS011;14685;50.618;7.024;2023-06-22T06:14:21;15.45;;;12.40;;
27163;SDS011;14685;50.618;7.024;2023-06-22T06:16:49;14.45;;;13.00;;
27163;SDS011;14685;50.618;7.024;2023-06-22T06:19:16;13.38;;;11.45;;
27163;SDS011;14685;50.618;7.024;2023-06-22T06:21:43;19.88;;;12.27;;
27163;SDS011;14685;50.618;7.024;2023-06-22T06:24:10;15.13;;;12.13;;
27163;SDS011;14685;50.618;7.024;2023-06-22T06:26:36;12.88;;;11.30;;
27163;SDS011;14685;50.618;7.024;2023-06-22T06:29:06;14.85;;;12.35;;
27163;SDS011;14685;50.618;7.024;2023-06-22T06:31:33;15.57;;;12.02;;
27163;SDS011;14685;50.618;7.024;2023-06-22T06:34:02;12.60;;;11.32;;
27163;SDS011;14685;50.618;7.024;2023-06-22T06:36:29;12.45;;;11.07;;
27163;SDS011;14685;50.618;7.024;2023-06-22T06:38:56;14.00;;;11.68;;
27163;SDS011;14685;50.618;7.024;2023-06-22T06:41:24;13.23;;;11.68;;
27163;SDS011;14685;50.618;7.024;2023-06-22T06:43:51;19.05;;;13.05;;
27163;SDS011;14685;50.618;7.024;2023-06-22T06:46:21;13.38;;;10.82;;
27163;SDS011;14685;50.618;7.024;2023-06-22T06:48:48;16.95;;;11.35;;
27163;SDS011;14685;50.618;7.024;2023-06-22T06:51:14;17.17;;;12.85;;
27163;SDS011;14685;50.618;7.024;2023-06-22T06:53:41;15.73;;;12.70;;
27163;SDS011;14685;50.618;7.024;2023-06-22T06:56:08;14.50;;;12.57;;
27163;SDS011;14685;50.618;7.024;2023-06-22T06:58:38;14.82;;;13.13;;
27163;SDS011;14685;50.618;7.024;2023-06-22T07:01:08;18.55;;;12.80;;
27163;SDS011;14685;50.618;7.024;2023-06-22T07:03:35;15.88;;;12.05;;
27163;SDS011;14685;50.618;7.024;2023-06-22T07:06:02;15.98;;;12.20;;
27163;SDS011;14685;50.618;7.024;2023-06-22T07:08:29;13.90;;;11.60;;
27163;SDS011;14685;50.618;7.024;2023-06-22T07:14:33;16.05;;;12.30;;
27163;SDS011;14685;50.618;7.024;2023-06-22T07:17:01;13.82;;;12.07;;
27163;SDS011;14685;50.618;7.024;2023-06-22T07:19:29;16.00;;;13.20;;
27163;SDS011;14685;50.618;7.024;2023-06-22T07:21:57;13.85;;;12.38;;
27163;SDS011;14685;50.618;7.024;2023-06-22T07:24:24;14.23;;;12.80;;
27163;SDS011;14685;50.618;7.024;2023-06-22T07:26:51;16.90;;;13.55;;
27163;SDS011;14685;50.618;7.024;2023-06-22T07:29:18;13.73;;;11.95;;
27163;SDS011;14685;50.618;7.024;2023-06-22T07:31:47;15.02;;;12.15;;
27163;SDS011;14685;50.618;7.024;2023-06-22T07:34:16;18.20;;;13.98;;
27163;SDS011;14685;50.618;7.024;2023-06-22T07:36:43;13.55;;;11.98;;
27163;SDS011;14685;50.618;7.024;2023-06-22T07:39:12;17.52;;;12.48;;
27163;SDS011;14685;50.618;7.024;2023-06-22T07:41:40;13.23;;;11.35;;
27163;SDS011;14685;50.618;7.024;2023-06-22T07:44:07;14.07;;;12.35;;
27163;SDS011;14685;50.618;7.024;2023-06-22T07:46:34;16.45;;;12.55;;
27163;SDS011;14685;50.618;7.024;2023-06-22T07:49:02;16.02;;;12.70;;
27163;SDS011;14685;50.618;7.024;2023-06-22T07:51:31;13.25;;;11.75;;
27163;SDS011;14685;50.618;7.024;2023-06-22T07:53:58;13.75;;;11.68;;
27163;SDS011;14685;50.618;7.024;2023-06-22T07:56:25;11.25;;;10.10;;
27163;SDS011;14685;50.618;7.024;2023-06-22T07:58:52;14.15;;;11.75;;
27163;SDS011;14685;50.618;7.024;2023-06-22T08:01:19;14.10;;;11.23;;
27163;SDS011;14685;50.618;7.024;2023-06-22T08:03:48;12.45;;;11.25;;
27163;SDS011;14685;50.618;7.024;2023-06-22T08:06:15;11.30;;;9.93;;
27163;SDS011;14685;50.618;7.024;2023-06-22T08:08:42;11.05;;;9.95;;
27163;SDS011;14685;50.618;7.024;2023-06-22T08:11:09;11.88;;;10.60;;
27163;SDS011;14685;50.618;7.024;2023-06-22T08:13:36;10.43;;;9.35;;
27163;SDS011;14685;50.618;7.024;2023-06-22T08:16:03;14.10;;;10.18;;
27163;SDS011;14685;50.618;7.024;2023-06-22T08:18:30;13.90;;;11.32;;
27163;SDS011;14685;50.618;7.024;2023-06-22T08:20:57;11.77;;;10.68;;
27163;SDS011;14685;50.618;7.024;2023-06-22T08:23:24;10.90;;;9.82;;
27163;SDS011;14685;50.618;7.024;2023-06-22T08:25:51;11.93;;;10.52;;
27163;SDS011;14685;50.618;7.024;2023-06-22T08:28:18;11.43;;;10.02;;
27163;SDS011;14685;50.618;7.024;2023-06-22T08:30:45;11.60;;;10.40;;
27163;SDS011;14685;50.618;7.024;2023-06-22T08:33:12;11.63;;;10.52;;
27163;SDS011;14685;50.618;7.024;2023-06-22T08:35:52;11.82;;;8.70;;
27163;SDS011;14685;50.618;7.024;2023-06-22T08:38:20;10.30;;;9.30;;
27163;SDS011;14685;50.618;7.024;2023-06-22T08:40:47;11.52;;;10.05;;
27163;SDS011;14685;50.618;7.024;2023-06-22T08:43:15;13.93;;;9.75;;
27163;SDS011;14685;50.618;7.024;2023-06-22T08:45:43;10.82;;;9.73;;
27163;SDS011;14685;50.618;7.024;2023-06-22T08:48:11;12.65;;;10.88;;
27163;SDS011;14685;50.618;7.024;2023-06-22T08:50:38;13.02;;;10.27;;
27163;SDS011;14685;50.618;7.024;2023-06-22T08:53:07;14.27;;;11.20;;
27163;SDS011;14685;50.618;7.024;2023-06-22T08:55:36;12.35;;;11.05;;
27163;SDS011;14685;50.618;7.024;2023-06-22T08:58:03;12.15;;;10.38;;
27163;SDS011;14685;50.618;7.024;2023-06-22T09:00:30;11.55;;;10.35;;
27163;SDS011;14685;50.618;7.024;2023-06-22T09:03:01;10.85;;;9.75;;
27163;SDS011;14685;50.618;7.024;2023-06-22T09:05:29;12.00;;;10.70;;
27163;SDS011;14685;50.618;7.024;2023-06-22T09:07:57;11.07;;;9.98;;
27163;SDS011;14685;50.618;7.024;2023-06-22T09:10:25;14.65;;;11.60;;
27163;SDS011;14685;50.618;7.024;2023-06-22T09:12:52;11.98;;;10.75;;
27163;SDS011;14685;50.618;7.024;2023-06-22T09:15:19;14.48;;;10.70;;
27163;SDS011;14685;50.618;7.024;2023-06-22T09:17:47;13.27;;;9.73;;
27163;SDS011;14685;50.618;7.024;2023-06-22T09:20:14;11.70;;;10.50;;
27163;SDS011;14685;50.618;7.024;2023-06-22T09:22:42;11.05;;;9.90;;
27163;SDS011;14685;50.618;7.024;2023-06-22T09:25:09;14.52;;;11.13;;
27163;SDS011;14685;50.618;7.024;2023-06-22T09:27:36;11.27;;;9.18;;
27163;SDS011;14685;50.618;7.024;2023-06-22T09:30:03;11.02;;;9.93;;
27163;SDS011;14685;50.618;7.024;2023-06-22T09:32:31;12.13;;;10.68;;
27163;SDS011;14685;50.618;7.024;2023-06-22T09:34:58;13.05;;;10.73;;
27163;SDS011;14685;50.618;7.024;2023-06-22T09:37:25;11.50;;;10.43;;
27163;SDS011;14685;50.618;7.024;2023-06-22T09:39:53;11.88;;;10.65;;
27163;SDS011;14685;50.618;7.024;2023-06-22T09:42:20;12.05;;;10.93;;
27163;SDS011;14685;50.618;7.024;2023-06-22T09:44:47;10.82;;;9.80;;
27163;SDS011;14685;50.618;7.024;2023-06-22T09:47:14;10.30;;;9.30;;
27163;SDS011;14685;50.618;7.024;2023-06-22T09:49:41;10.73;;;9.70;;
27163;SDS011;14685;50.618;7.024;2023-06-22T09:52:14;11.02;;;9.43;;
27163;SDS011;14685;50.618;7.024;2023-06-22T09:54:41;11.38;;;9.95;;
27163;SDS011;14685;50.618;7.024;2023-06-22T09:57:08;10.23;;;9.23;;
27163;SDS011;14685;50.618;7.024;2023-06-22T09:59:35;12.60;;;9.90;;
27163;SDS011;14685;50.618;7.024;2023-06-22T10:02:01;10.05;;;9.13;;
27163;SDS011;14685;50.618;7.024;2023-06-22T10:04:28;14.38;;;10.30;;
27163;SDS011;14685;50.618;7.024;2023-06-22T10:06:56;10.85;;;9.50;;
27163;SDS011;14685;50.618;7.024;2023-06-22T10:09:23;10.25;;;9.25;;
27163;SDS011;14685;50.618;7.024;2023-06-22T10:11:50;14.50;;;9.73;;
27163;SDS011;14685;50.618;7.024;2023-06-22T10:14:17;13.60;;;9.68;;
27163;SDS011;14685;50.618;7.024;2023-06-22T10:16:44;12.95;;;10.07;;
27163;SDS011;14685;50.618;7.024;2023-06-22T10:19:11;11.57;;;10.10;;
27163;SDS011;14685;50.618;7.024;2023-06-22T10:21:38;11.52;;;10.35;;
27163;SDS011;14685;50.618;7.024;2023-06-22T10:24:05;11.88;;;10.23;;
27163;SDS011;14685;50.618;7.024;2023-06-22T10:26:33;12.32;;;10.40;;
27163;SDS011;14685;50.618;7.024;2023-06-22T10:29:00;16.80;;;11.95;;
27163;SDS011;14685;50.618;7.024;2023-06-22T10:31:42;14.35;;;11.45;;
27163;SDS011;14685;50.618;7.024;2023-06-22T10:34:09;14.30;;;12.40;;
27163;SDS011;14685;50.618;7.024;2023-06-22T10:36:36;13.77;;;12.48;;
27163;SDS011;14685;50.618;7.024;2023-06-22T10:39:03;14.77;;;13.38;;
27163;SDS011;14685;50.618;7.024;2023-06-22T10:41:30;22.13;;;15.52;;
27163;SDS011;14685;50.618;7.024;2023-06-22T10:43:57;38.00;;;19.77;;
27163;SDS011;14685;50.618;7.024;2023-06-22T10:46:25;28.33;;;17.10;;
27163;SDS011;14685;50.618;7.024;2023-06-22T10:48:52;28.85;;;18.67;;
27163;SDS011;14685;50.618;7.024;2023-06-22T10:51:21;22.80;;;18.13;;
27163;SDS011;14685;50.618;7.024;2023-06-22T10:53:48;30.02;;;19.92;;
27163;SDS011;14685;50.618;7.024;2023-06-22T10:56:15;20.88;;;17.63;;
27163;SDS011;14685;50.618;7.024;2023-06-22T10:58:42;22.77;;;17.42;;
27163;SDS011;14685;50.618;7.024;2023-06-22T11:01:11;19.08;;;15.82;;
27163;SDS011;14685;50.618;7.024;2023-06-22T11:03:55;20.63;;;18.10;;
27163;SDS011;14685;50.618;7.024;2023-06-22T11:06:22;21.90;;;18.88;;
27163;SDS011;14685;50.618;7.024;2023-06-22T11:08:49;19.33;;;17.38;;
27163;SDS011;14685;50.618;7.024;2023-06-22T11:11:31;23.45;;;16.67;;
27163;SDS011;14685;50.618;7.024;2023-06-22T11:13:59;21.27;;;17.02;;
27163;SDS011;14685;50.618;7.024;2023-06-22T11:16:26;22.55;;;18.98;;
27163;SDS011;14685;50.618;7.024;2023-06-22T11:18:53;22.75;;;19.02;;
27163;SDS011;14685;50.618;7.024;2023-06-22T11:21:20;20.33;;;18.17;;
27163;SDS011;14685;50.618;7.024;2023-06-22T11:23:49;21.65;;;19.08;;
27163;SDS011;14685;50.618;7.024;2023-06-22T11:26:16;22.05;;;19.75;;
27163;SDS011;14685;50.618;7.024;2023-06-22T11:28:44;22.50;;;20.05;;
27163;SDS011;14685;50.618;7.024;2023-06-22T11:31:11;21.02;;;17.25;;
27163;SDS011;14685;50.618;7.024;2023-06-22T11:33:41;18.63;;;16.52;;
27163;SDS011;14685;50.618;7.024;2023-06-22T11:36:07;16.33;;;14.43;;
27163;SDS011;14685;50.618;7.024;2023-06-22T11:38:35;14.18;;;12.68;;
27163;SDS011;14685;50.618;7.024;2023-06-22T11:41:07;12.18;;;10.50;;
27163;SDS011;14685;50.618;7.024;2023-06-22T11:43:34;15.02;;;13.25;;
27163;SDS011;14685;50.618;7.024;2023-06-22T11:46:02;16.35;;;14.85;;
27163;SDS011;14685;50.618;7.024;2023-06-22T11:48:32;15.85;;;14.18;;
27163;SDS011;14685;50.618;7.024;2023-06-22T11:51:00;18.33;;;15.13;;
27163;SDS011;14685;50.618;7.024;2023-06-22T11:53:29;16.60;;;14.88;;
27163;SDS011;14685;50.618;7.024;2023-06-22T11:55:56;16.80;;;14.77;;
27163;SDS011;14685;50.618;7.024;2023-06-22T11:58:24;16.63;;;14.32;;
27163;SDS011;14685;50.618;7.024;2023-06-22T12:00:51;14.25;;;12.85;;
27163;SDS011;14685;50.618;7.024;2023-06-22T12:03:19;16.98;;;13.65;;
27163;SDS011;14685;50.618;7.024;2023-06-22T12:05:50;15.45;;;13.52;;
27163;SDS011;14685;50.618;7.024;2023-06-22T12:08:18;17.98;;;14.70;;
27163;SDS011;14685;50.618;7.024;2023-06-22T12:10:45;15.75;;;14.18;;
27163;SDS011;14685;50.618;7.024;2023-06-22T12:13:12;16.20;;;14.65;;
27163;SDS011;14685;50.618;7.024;2023-06-22T12:15:39;15.18;;;13.60;;
27163;SDS011;14685;50.618;7.024;2023-06-22T12:18:06;18.42;;;16.38;;
27163;SDS011;14685;50.618;7.024;2023-06-22T12:20:35;15.65;;;14.05;;
27163;SDS011;14685;50.618;7.024;2023-06-22T12:23:02;17.40;;;15.57;;
27163;SDS011;14685;50.618;7.024;2023-06-22T12:25:29;16.38;;;14.70;;
27163;SDS011;14685;50.618;7.024;2023-06-22T12:27:55;15.38;;;13.77;;
27163;SDS011;14685;50.618;7.024;2023-06-22T12:30:22;16.27;;;14.60;;
27163;SDS011;14685;50.618;7.024;2023-06-22T12:32:49;14.52;;;13.07;;
27163;SDS011;14685;50.618;7.024;2023-06-22T12:35:20;17.30;;;15.55;;
27163;SDS011;14685;50.618;7.024;2023-06-22T12:37:47;14.20;;;12.90;;
27163;SDS011;14685;50.618;7.024;2023-06-22T12:40:14;16.25;;;13.20;;
27163;SDS011;14685;50.618;7.024;2023-06-22T12:42:41;13.15;;;11.90;;
27163;SDS011;14685;50.618;7.024;2023-06-22T12:45:09;12.27;;;11.18;;
27163;SDS011;14685;50.618;7.024;2023-06-22T12:47:36;14.10;;;12.70;;
27163;SDS011;14685;50.618;7.024;2023-06-22T12:50:03;13.38;;;12.18;;
27163;SDS011;14685;50.618;7.024;2023-06-22T12:52:32;11.63;;;10.43;;
27163;SDS011;14685;50.618;7.024;2023-06-22T12:54:59;12.50;;;11.30;;
27163;SDS011;14685;50.618;7.024;2023-06-22T12:57:26;11.82;;;10.40;;
27163;SDS011;14685;50.618;7.024;2023-06-22T12:59:53;10.73;;;9.65;;
27163;SDS011;14685;50.618;7.024;2023-06-22T13:02:20;11.55;;;10.07;;
27163;SDS011;14685;50.618;7.024;2023-06-22T13:04:47;11.30;;;10.20;;
27163;SDS011;14685;50.618;7.024;2023-06-22T13:07:13;12.40;;;10.60;;
27163;SDS011;14685;50.618;7.024;2023-06-22T13:09:49;13.68;;;10.55;;
27163;SDS011;14685;50.618;7.024;2023-06-22T13:12:20;10.55;;;9.55;;
27163;SDS011;14685;50.618;7.024;2023-06-22T13:14:47;10.15;;;9.15;;
27163;SDS011;14685;50.618;7.024;2023-06-22T13:17:15;12.25;;;10.20;;
27163;SDS011;14685;50.618;7.024;2023-06-22T13:19:42;10.00;;;8.98;;
27163;SDS011;14685;50.618;7.024;2023-06-22T13:25:00;9.75;;;8.77;;
27163;SDS011;14685;50.618;7.024;2023-06-22T13:27:27;9.93;;;8.90;;
27163;SDS011;14685;50.618;7.024;2023-06-22T13:29:55;9.55;;;8.50;;
27163;SDS011;14685;50.618;7.024;2023-06-22T13:32:22;10.27;;;9.25;;
27163;SDS011;14685;50.618;7.024;2023-06-22T13:34:50;10.30;;;8.05;;
27163;SDS011;14685;50.618;7.024;2023-06-22T13:37:18;11.27;;;8.45;;
27163;SDS011;14685;50.618;7.024;2023-06-22T13:39:45;9.93;;;8.98;;
27163;SDS011;14685;50.618;7.024;2023-06-22T13:42:12;11.13;;;8.57;;
27163;SDS011;14685;50.618;7.024;2023-06-22T13:44:39;10.57;;;9.48;;
27163;SDS011;14685;50.618;7.024;2023-06-22T13:47:06;9.93;;;8.90;;
27163;SDS011;14685;50.618;7.024;2023-06-22T13:49:33;10.77;;;9.70;;
27163;SDS011;14685;50.618;7.024;2023-06-22T13:52:00;10.30;;;9.25;;
27163;SDS011;14685;50.618;7.024;2023-06-22T13:54:29;11.00;;;9.68;;
27163;SDS011;14685;50.618;7.024;2023-06-22T13:57:00;10.70;;;9.70;;
27163;SDS011;14685;50.618;7.024;2023-06-22T13:59:27;11.43;;;10.02;;
27163;SDS011;14685;50.618;7.024;2023-06-22T14:01:54;11.30;;;10.05;;
27163;SDS011;14685;50.618;7.024;2023-06-22T14:04:23;11.95;;;9.98;;
27163;SDS011;14685;50.618;7.024;2023-06-22T14:06:50;10.82;;;9.70;;
27163;SDS011;14685;50.618;7.024;2023-06-22T14:09:19;11.55;;;9.57;;
27163;SDS011;14685;50.618;7.024;2023-06-22T14:11:46;10.95;;;9.55;;
27163;SDS011;14685;50.618;7.024;2023-06-22T14:14:13;10.98;;;9.82;;
27163;SDS011;14685;50.618;7.024;2023-06-22T14:16:40;14.98;;;9.75;;
27163;SDS011;14685;50.618;7.024;2023-06-22T14:19:07;10.68;;;9.13;;
27163;SDS011;14685;50.618;7.024;2023-06-22T14:21:34;9.60;;;8.70;;
27163;SDS011;14685;50.618;7.024;2023-06-22T14:24:01;8.90;;;7.82;;
27163;SDS011;14685;50.618;7.024;2023-06-22T14:26:28;12.07;;;8.10;;
27163;SDS011;14685;50.618;7.024;2023-06-22T14:28:57;11.60;;;8.40;;
27163;SDS011;14685;50.618;7.024;2023-06-22T14:31:24;9.20;;;8.40;;
27163;SDS011;14685;50.618;7.024;2023-06-22T14:33:51;8.23;;;7.40;;
27163;SDS011;14685;50.618;7.024;2023-06-22T14:36:18;13.73;;;9.85;;
27163;SDS011;14685;50.618;7.024;2023-06-22T14:38:45;23.52;;;10.02;;
27163;SDS011;14685;50.618;7.024;2023-06-22T14:41:13;13.18;;;8.88;;
27163;SDS011;14685;50.618;7.024;2023-06-22T14:43:45;9.98;;;7.63;;
27163;SDS011;14685;50.618;7.024;2023-06-22T14:46:18;7.70;;;6.22;;
27163;SDS011;14685;50.618;7.024;2023-06-22T14:48:45;10.55;;;7.25;;
27163;SDS011;14685;50.618;7.024;2023-06-22T14:51:12;12.57;;;7.88;;